createdAt,value
2022-09-23T00:01:34.890Z,8.27
2022-09-23T00:04:01.236Z,8.37
2022-09-23T00:06:30.635Z,8.44
2022-09-23T00:08:56.953Z,8.55
2022-09-23T00:11:26.886Z,8.62
2022-09-23T00:13:54.020Z,8.65
2022-09-23T00:16:24.455Z,8.63
2022-09-23T00:18:50.830Z,8.68
2022-09-23T00:21:17.953Z,8.87
2022-09-23T00:23:44.372Z,9.13
2022-09-23T00:26:12.055Z,9.31
2022-09-23T00:28:38.443Z,9.47
2022-09-23T00:31:05.394Z,9.51
2022-09-23T00:33:31.811Z,9.59
2022-09-23T00:35:58.812Z,9.61
2022-09-23T00:38:25.145Z,9.57
2022-09-23T00:40:51.627Z,9.54
2022-09-23T00:43:18.361Z,9.51
2022-09-23T00:45:48.609Z,9.49
2022-09-23T00:48:16.986Z,9.38
2022-09-23T00:50:43.983Z,9.27
2022-09-23T00:53:11.324Z,9.19
2022-09-23T00:55:39.412Z,9.26
2022-09-23T00:58:06.538Z,9.22
2022-09-23T01:00:33.832Z,9.05
2022-09-23T01:03:00.501Z,8.85
2022-09-23T01:05:26.848Z,8.89
2022-09-23T01:07:53.866Z,8.97
2022-09-23T01:10:21.432Z,8.89
2022-09-23T01:13:08.469Z,8.95
2022-09-23T01:15:51.804Z,8.95
2022-09-23T01:18:53.621Z,8.96
2022-09-23T01:21:25.600Z,8.90
2022-09-23T01:23:52.813Z,8.77
2022-09-23T01:26:24.447Z,8.83
2022-09-23T01:28:57.202Z,8.76
2022-09-23T01:31:29.801Z,8.71
2022-09-23T01:33:56.902Z,8.87
2022-09-23T01:36:31.432Z,8.88
2022-09-23T01:39:08.589Z,8.90
2022-09-23T01:41:44.196Z,8.82
2022-09-23T01:44:17.482Z,8.81
2022-09-23T01:46:43.760Z,8.72
2022-09-23T01:49:13.124Z,8.72
2022-09-23T01:51:40.613Z,9.00
2022-09-23T01:54:11.759Z,9.02
2022-09-23T01:56:38.020Z,9.06
2022-09-23T01:59:10.379Z,9.19
2022-09-23T02:01:39.265Z,9.23
2022-09-23T02:04:25.292Z,9.31
2022-09-23T02:06:53.091Z,9.47
2022-09-23T02:09:22.118Z,9.57
2022-09-23T02:11:48.516Z,9.50
2022-09-23T02:14:20.884Z,9.44
2022-09-23T02:16:56.975Z,9.34
2022-09-23T02:19:34.256Z,9.30
2022-09-23T02:22:05.446Z,9.38
2022-09-23T02:24:32.160Z,9.46
2022-09-23T02:27:18.309Z,9.47
2022-09-23T02:29:44.586Z,9.54
2022-09-23T02:32:16.859Z,9.55
2022-09-23T02:35:03.509Z,9.44
2022-09-23T02:37:39.119Z,9.57
2022-09-23T02:40:31.381Z,9.51
2022-09-23T02:42:57.693Z,9.44
2022-09-23T02:45:24.114Z,9.52
2022-09-23T02:47:52.756Z,9.58
2022-09-23T02:50:19.280Z,9.52
2022-09-23T02:52:46.245Z,9.52
2022-09-23T02:55:13.008Z,9.51
2022-09-23T02:57:39.331Z,9.33
2022-09-23T03:00:05.929Z,9.38
2022-09-23T03:02:49.234Z,9.48
2022-09-23T03:05:15.948Z,9.43
2022-09-23T03:08:02.290Z,9.41
2022-09-23T03:10:35.769Z,9.37
2022-09-23T03:13:14.649Z,9.35
2022-09-23T03:15:48.307Z,9.27
2022-09-23T03:18:26.025Z,9.05
2022-09-23T03:20:53.877Z,9.16
2022-09-23T03:23:23.528Z,9.19
2022-09-23T03:25:49.935Z,9.25
2022-09-23T03:28:17.324Z,9.31
2022-09-23T03:30:44.055Z,9.28
2022-09-23T03:33:12.064Z,9.20
2022-09-23T03:36:01.424Z,9.22
2022-09-23T03:38:30.246Z,9.09
2022-09-23T03:40:56.645Z,9.25
2022-09-23T03:43:22.975Z,9.34
2022-09-23T03:45:49.378Z,9.28
2022-09-23T03:48:15.807Z,9.21
2022-09-23T03:50:42.199Z,9.20
2022-09-23T03:53:08.576Z,9.24
2022-09-23T03:55:34.977Z,9.17
2022-09-23T03:58:03.153Z,9.18
2022-09-23T04:00:29.514Z,9.10
2022-09-23T04:02:56.747Z,9.11
2022-09-23T04:05:23.393Z,9.17
2022-09-23T04:07:51.055Z,9.23
2022-09-23T04:10:17.411Z,9.36
2022-09-23T04:12:43.722Z,9.26
2022-09-23T04:15:10.299Z,9.37
2022-09-23T04:17:36.611Z,9.36
2022-09-23T04:20:03.094Z,9.32
2022-09-23T04:22:29.452Z,9.38
2022-09-23T04:24:56.204Z,9.33
2022-09-23T04:27:22.562Z,9.31
2022-09-23T04:29:48.922Z,9.22
2022-09-23T04:32:15.251Z,9.16
2022-09-23T04:34:41.565Z,9.10
2022-09-23T04:37:07.930Z,8.88
2022-09-23T04:39:34.252Z,8.71
2022-09-23T04:42:00.589Z,8.70
2022-09-23T04:44:28.548Z,8.42
2022-09-23T04:46:54.949Z,8.23
2022-09-23T04:49:21.336Z,8.18
2022-09-23T04:51:47.851Z,8.13
2022-09-23T04:54:17.243Z,8.10
2022-09-23T04:56:45.298Z,8.52
2022-09-23T04:59:11.612Z,8.71
2022-09-23T05:01:38.290Z,8.94
2022-09-23T05:04:05.963Z,8.94
2022-09-23T05:06:34.446Z,8.96
2022-09-23T05:09:00.879Z,8.88
2022-09-23T05:11:27.287Z,8.90
2022-09-23T05:13:53.958Z,8.88
2022-09-23T05:16:20.574Z,8.95
2022-09-23T05:18:46.989Z,8.88
2022-09-23T05:21:13.790Z,8.97
2022-09-23T05:23:40.716Z,8.96
2022-09-23T05:26:07.681Z,9.21
2022-09-23T05:28:34.240Z,9.26
2022-09-23T05:31:04.367Z,9.27
2022-09-23T05:33:31.418Z,9.39
2022-09-23T05:35:57.988Z,9.50
2022-09-23T05:38:24.356Z,9.51
2022-09-23T05:41:03.809Z,9.50
2022-09-23T05:43:30.348Z,9.52
2022-09-23T05:46:08.692Z,9.51
2022-09-23T05:48:35.166Z,9.53
2022-09-23T05:51:01.668Z,9.56
2022-09-23T05:53:29.313Z,9.51
2022-09-23T05:55:56.448Z,9.52
2022-09-23T05:58:23.566Z,9.57
2022-09-23T06:00:50.066Z,9.61
2022-09-23T06:03:16.890Z,9.71
2022-09-23T06:05:43.252Z,9.72
2022-09-23T06:08:09.581Z,9.72
2022-09-23T06:10:36.692Z,9.77
2022-09-23T06:13:03.164Z,9.67
2022-09-23T06:15:29.532Z,9.68
2022-09-23T06:17:55.871Z,9.67
2022-09-23T06:20:22.242Z,9.69
2022-09-23T06:22:52.913Z,9.67
2022-09-23T06:25:23.064Z,9.69
2022-09-23T06:27:55.603Z,9.73
2022-09-23T06:30:22.296Z,9.72
2022-09-23T06:32:50.319Z,9.72
2022-09-23T06:35:26.368Z,9.68
2022-09-23T06:37:53.873Z,9.72
2022-09-23T06:40:20.641Z,9.72
2022-09-23T06:42:51.494Z,9.69
2022-09-23T06:45:18.689Z,9.72
2022-09-23T06:47:45.040Z,9.70
2022-09-23T06:50:12.465Z,9.68
2022-09-23T06:52:38.985Z,9.64
2022-09-23T06:55:05.581Z,9.66
2022-09-23T06:57:32.795Z,9.73
2022-09-23T06:59:59.295Z,9.75
2022-09-23T07:02:26.241Z,9.82
2022-09-23T07:04:52.864Z,9.92
2022-09-23T07:07:19.241Z,10.07
2022-09-23T07:09:45.746Z,10.26
2022-09-23T07:12:12.273Z,10.41
2022-09-23T07:14:38.612Z,10.62
2022-09-23T07:17:04.977Z,10.63
2022-09-23T07:19:31.488Z,10.75
2022-09-23T07:21:57.853Z,10.76
2022-09-23T07:24:24.189Z,10.93
2022-09-23T07:26:50.579Z,11.11
2022-09-23T07:29:16.900Z,11.35
2022-09-23T07:31:43.247Z,11.41
2022-09-23T07:34:11.570Z,11.37
2022-09-23T07:36:40.621Z,11.59
2022-09-23T07:39:08.044Z,11.54
2022-09-23T07:41:34.527Z,11.36
2022-09-23T07:44:01.209Z,11.31
2022-09-23T07:46:28.499Z,11.37
2022-09-23T07:48:54.929Z,11.54
2022-09-23T07:51:35.724Z,11.57
2022-09-23T07:54:02.886Z,11.65
2022-09-23T07:56:29.678Z,11.72
2022-09-23T07:59:03.805Z,11.68
2022-09-23T08:01:34.100Z,11.67
2022-09-23T08:04:01.383Z,11.62
2022-09-23T08:06:27.730Z,11.44
2022-09-23T08:08:54.048Z,11.58
2022-09-23T08:11:20.386Z,11.76
2022-09-23T08:13:46.719Z,11.79
2022-09-23T08:16:13.946Z,11.98
2022-09-23T08:18:43.289Z,12.14
2022-09-23T08:21:09.666Z,11.85
2022-09-23T08:23:36.011Z,12.21
2022-09-23T08:26:03.295Z,12.40
2022-09-23T08:28:29.648Z,12.55
2022-09-23T08:30:56.066Z,12.67
2022-09-23T08:33:23.574Z,12.58
2022-09-23T08:35:50.307Z,12.54
2022-09-23T08:38:16.635Z,12.45
2022-09-23T08:40:43.929Z,12.64
2022-09-23T08:43:25.357Z,12.78
2022-09-23T08:45:52.167Z,12.69
2022-09-23T08:48:21.187Z,12.72
2022-09-23T08:50:48.480Z,12.71
2022-09-23T08:53:23.505Z,12.78
2022-09-23T08:55:51.108Z,12.81
2022-09-23T08:58:26.809Z,12.66
2022-09-23T09:01:07.476Z,12.90
2022-09-23T09:03:39.760Z,12.97
2022-09-23T09:06:06.501Z,12.93
2022-09-23T09:08:33.421Z,13.04
2022-09-23T09:11:00.036Z,13.32
2022-09-23T09:13:36.900Z,12.93
2022-09-23T09:16:15.888Z,12.92
2022-09-23T09:18:49.107Z,13.22
2022-09-23T09:21:15.991Z,13.35
2022-09-23T09:23:45.291Z,13.35
2022-09-23T09:26:12.124Z,13.31
2022-09-23T09:28:39.969Z,13.40
2022-09-23T09:31:15.380Z,13.52
2022-09-23T09:33:46.284Z,13.56
2022-09-23T09:36:19.071Z,13.55
2022-09-23T09:38:45.456Z,13.65
2022-09-23T09:41:15.794Z,13.51
2022-09-23T09:43:44.112Z,13.65
2022-09-23T09:46:45.182Z,13.89
2022-09-23T09:49:23.267Z,14.12
2022-09-23T09:52:11.546Z,14.01
2022-09-23T09:54:38.640Z,14.15
2022-09-23T09:57:05.316Z,14.30
2022-09-23T09:59:31.646Z,14.14
2022-09-23T10:02:16.867Z,13.95
2022-09-23T10:04:43.433Z,13.86
2022-09-23T10:07:13.965Z,13.78
2022-09-23T10:09:41.188Z,13.89
2022-09-23T10:12:18.455Z,14.02
2022-09-23T10:14:45.267Z,14.27
2022-09-23T10:17:15.156Z,14.44
2022-09-23T10:19:44.710Z,14.61
2022-09-23T10:22:16.427Z,14.84
2022-09-23T10:24:42.763Z,15.07
2022-09-23T10:27:09.446Z,15.12
2022-09-23T10:29:39.630Z,15.44
2022-09-23T10:32:20.231Z,15.55
2022-09-23T10:34:51.478Z,15.30
2022-09-23T10:37:18.699Z,15.58
2022-09-23T10:40:03.832Z,15.47
2022-09-23T10:43:08.194Z,15.69
2022-09-23T10:45:53.471Z,16.00
2022-09-23T10:48:24.655Z,16.22
2022-09-23T10:50:53.967Z,16.20
2022-09-23T10:53:29.691Z,16.24
2022-09-23T10:56:00.116Z,16.42
2022-09-23T10:58:45.344Z,16.69
2022-09-23T11:01:31.087Z,16.65
2022-09-23T11:04:14.690Z,16.73
2022-09-23T11:06:44.169Z,16.87
2022-09-23T11:09:30.039Z,16.99
2022-09-23T11:12:14.730Z,16.87
2022-09-23T11:14:46.887Z,16.79
2022-09-23T11:17:32.138Z,17.11
2022-09-23T11:20:02.826Z,17.24
2022-09-23T11:22:37.379Z,17.20
2022-09-23T11:25:18.250Z,17.08
2022-09-23T11:27:50.880Z,17.07
2022-09-23T11:30:19.924Z,16.94
2022-09-23T11:32:51.159Z,17.10
2022-09-23T11:35:36.172Z,16.94
2022-09-23T11:38:11.956Z,16.88
2022-09-23T11:40:42.390Z,16.81
2022-09-23T11:43:18.951Z,16.75
2022-09-23T11:45:52.636Z,16.72
2022-09-23T11:48:20.639Z,16.87
2022-09-23T11:50:58.583Z,16.88
2022-09-23T11:53:37.311Z,16.99
2022-09-23T11:56:05.785Z,17.05
2022-09-23T12:01:07.356Z,17.21
2022-09-23T12:03:43.917Z,17.16
2022-09-23T12:06:13.824Z,16.86
2022-09-23T12:08:40.198Z,16.96
2022-09-23T12:11:15.981Z,16.87
2022-09-23T12:13:42.242Z,17.09
2022-09-23T12:16:10.026Z,17.38
2022-09-23T12:18:39.375Z,17.35
2022-09-23T12:21:05.686Z,17.25
2022-09-23T12:23:36.633Z,17.23
2022-09-23T12:26:03.686Z,17.48
2022-09-23T12:28:37.686Z,17.42
2022-09-23T12:31:04.673Z,17.44
2022-09-23T12:33:34.127Z,17.27
2022-09-23T12:36:07.451Z,17.27
2022-09-23T12:38:40.465Z,17.31
2022-09-23T12:41:20.626Z,17.32
2022-09-23T12:43:55.528Z,17.40
2022-09-23T12:46:28.092Z,17.32
2022-09-23T12:48:57.854Z,17.38
2022-09-23T12:51:28.194Z,17.29
2022-09-23T12:53:55.547Z,17.15
2022-09-23T12:56:23.111Z,16.91
2022-09-23T12:58:49.451Z,17.16
2022-09-23T13:01:17.082Z,17.32
2022-09-23T13:04:09.079Z,17.24
2022-09-23T13:06:51.363Z,17.39
2022-09-23T13:09:20.015Z,17.29
2022-09-23T13:11:47.965Z,17.50
2022-09-23T13:14:21.957Z,17.50
2022-09-23T13:16:51.680Z,17.77
2022-09-23T13:19:27.209Z,18.02
2022-09-23T13:21:53.517Z,17.98
2022-09-23T13:24:22.864Z,18.11
2022-09-23T13:26:57.212Z,18.21
2022-09-23T13:29:24.111Z,18.24
2022-09-23T13:31:50.586Z,18.42
2022-09-23T13:34:18.477Z,18.12
2022-09-23T13:36:45.401Z,18.66
2022-09-23T13:39:16.129Z,18.25
2022-09-23T13:41:43.335Z,18.58
2022-09-23T13:44:13.252Z,18.13
2022-09-23T13:46:44.278Z,18.00
2022-09-23T13:49:24.544Z,18.15
2022-09-23T13:51:51.557Z,18.14
2022-09-23T13:54:26.786Z,18.08
2022-09-23T13:56:53.101Z,18.23
2022-09-23T13:59:24.029Z,18.20
2022-09-23T14:01:50.445Z,18.15
2022-09-23T14:04:24.300Z,18.23
2022-09-23T14:06:50.620Z,17.97
2022-09-23T14:09:22.833Z,17.65
2022-09-23T14:11:49.485Z,17.53
2022-09-23T14:14:15.814Z,17.57
2022-09-23T14:16:42.231Z,17.38
2022-09-23T14:19:11.436Z,17.51
2022-09-23T14:21:38.339Z,17.22
2022-09-23T14:24:21.005Z,17.33
2022-09-23T14:26:48.661Z,17.40
2022-09-23T14:29:23.614Z,17.53
2022-09-23T14:31:57.316Z,17.66
2022-09-23T14:34:42.559Z,17.72
2022-09-23T14:37:47.718Z,17.93
2022-09-23T14:40:15.277Z,18.02
2022-09-23T14:42:42.605Z,17.71
2022-09-23T14:45:10.502Z,17.71
2022-09-23T14:47:36.861Z,17.83
2022-09-23T14:50:22.077Z,17.94
2022-09-23T14:52:51.671Z,17.90
2022-09-23T14:55:18.308Z,17.75
2022-09-23T14:57:44.796Z,17.90
2022-09-23T15:00:16.145Z,17.90
2022-09-23T15:02:43.251Z,17.96
2022-09-23T15:05:19.809Z,17.86
2022-09-23T15:07:50.356Z,17.55
2022-09-23T15:10:17.930Z,17.62
2022-09-23T15:12:44.839Z,17.59
2022-09-23T15:15:14.243Z,17.52
2022-09-23T15:17:40.630Z,17.22
2022-09-23T15:20:08.496Z,17.12
2022-09-23T15:22:45.266Z,16.98
2022-09-23T15:25:15.753Z,16.74
2022-09-23T15:27:42.104Z,16.49
2022-09-23T15:30:15.820Z,16.33
2022-09-23T15:32:42.685Z,16.18
2022-09-23T15:35:15.614Z,16.07
2022-09-23T15:37:42.851Z,15.95
2022-09-23T15:40:28.159Z,15.75
2022-09-23T15:42:56.094Z,15.57
2022-09-23T15:45:33.344Z,15.44
2022-09-23T15:48:00.859Z,15.40
2022-09-23T15:50:27.457Z,15.47
2022-09-23T15:52:53.893Z,15.54
2022-09-23T15:55:23.539Z,15.27
2022-09-23T15:57:49.950Z,15.31
2022-09-23T16:00:16.502Z,15.28
2022-09-23T16:02:43.862Z,15.18
2022-09-23T16:05:21.942Z,15.16
2022-09-23T16:07:48.593Z,15.29
2022-09-23T16:10:15.394Z,15.14
2022-09-23T16:12:41.715Z,15.00
2022-09-23T16:15:13.267Z,14.84
2022-09-23T16:17:39.629Z,14.76
2022-09-23T16:20:06.145Z,14.62
2022-09-23T16:22:32.458Z,14.55
2022-09-23T16:24:58.811Z,14.51
2022-09-23T16:27:26.033Z,14.54
2022-09-23T16:29:52.358Z,14.45
2022-09-23T16:32:22.129Z,14.35
2022-09-23T16:34:48.694Z,14.24
2022-09-23T16:37:16.613Z,14.19
2022-09-23T16:39:42.972Z,14.11
2022-09-23T16:42:09.813Z,14.12
2022-09-23T16:44:37.325Z,14.07
2022-09-23T16:47:03.921Z,14.19
2022-09-23T16:49:30.292Z,14.16
2022-09-23T16:51:56.630Z,14.08
2022-09-23T16:54:23.885Z,14.15
2022-09-23T16:56:50.699Z,14.03
2022-09-23T16:59:17.135Z,14.06
2022-09-23T17:02:02.778Z,14.11
2022-09-23T17:04:29.195Z,13.97
2022-09-23T17:06:56.387Z,13.95
2022-09-23T17:09:30.212Z,13.80
2022-09-23T17:12:11.281Z,13.75
2022-09-23T17:14:37.837Z,13.73
2022-09-23T17:17:04.188Z,13.75
2022-09-23T17:19:30.510Z,13.78
2022-09-23T17:21:57.089Z,13.60
2022-09-23T17:24:23.815Z,13.44
2022-09-23T17:26:53.114Z,13.39
2022-09-23T17:29:19.804Z,13.40
2022-09-23T17:31:46.589Z,13.40
2022-09-23T17:34:13.010Z,13.48
2022-09-23T17:36:39.775Z,13.48
2022-09-23T17:39:06.985Z,13.42
2022-09-23T17:41:33.319Z,13.50
2022-09-23T17:44:00.537Z,13.48
2022-09-23T17:46:30.876Z,13.53
2022-09-23T17:48:57.223Z,13.47
2022-09-23T17:51:23.979Z,13.38
2022-09-23T17:53:50.306Z,13.35
2022-09-23T17:56:17.700Z,13.31
2022-09-23T17:58:44.639Z,13.31
2022-09-23T18:01:11.619Z,13.40
2022-09-23T18:03:38.093Z,13.38
2022-09-23T18:06:08.337Z,13.39
2022-09-23T18:08:34.729Z,13.39
2022-09-23T18:11:01.080Z,13.41
2022-09-23T18:13:27.743Z,13.45
2022-09-23T18:15:54.147Z,13.51
2022-09-23T18:18:20.500Z,13.54
2022-09-23T18:20:46.872Z,13.64
2022-09-23T18:23:13.205Z,13.64
2022-09-23T18:25:40.142Z,13.68
2022-09-23T18:28:06.636Z,13.88
2022-09-23T18:30:33.417Z,14.05
2022-09-23T18:32:59.964Z,14.24
2022-09-23T18:35:26.500Z,14.30
2022-09-23T18:37:52.838Z,14.39
2022-09-23T18:40:19.250Z,14.45
2022-09-23T18:42:45.650Z,14.39
2022-09-23T18:45:12.043Z,14.53
2022-09-23T18:47:57.158Z,14.49
2022-09-23T18:50:43.684Z,14.60
2022-09-23T18:53:10.143Z,14.64
2022-09-23T18:55:36.539Z,14.61
2022-09-23T18:58:02.936Z,14.57
2022-09-23T19:00:29.961Z,14.39
2022-09-23T19:02:56.439Z,14.20
2022-09-23T19:05:22.782Z,14.11
2022-09-23T19:07:49.145Z,14.07
2022-09-23T19:10:15.465Z,13.98
2022-09-23T19:12:41.815Z,13.75
2022-09-23T19:15:08.221Z,13.57
2022-09-23T19:17:34.585Z,13.48
2022-09-23T19:20:00.972Z,13.47
2022-09-23T19:22:27.608Z,13.74
2022-09-23T19:24:53.919Z,13.79
2022-09-23T19:27:20.259Z,13.65
2022-09-23T19:29:47.391Z,13.61
2022-09-23T19:32:16.585Z,13.61
2022-09-23T19:34:44.219Z,13.57
2022-09-23T19:37:10.623Z,13.43
2022-09-23T19:39:37.546Z,13.32
2022-09-23T19:42:04.264Z,13.18
2022-09-23T19:44:30.649Z,13.05
2022-09-23T19:46:57.621Z,13.09
2022-09-23T19:49:24.681Z,13.05
2022-09-23T19:51:51.470Z,13.03
2022-09-23T19:54:21.071Z,13.11
2022-09-23T19:56:48.593Z,13.13
2022-09-23T19:59:18.486Z,13.22
2022-09-23T20:01:45.659Z,13.27
2022-09-23T20:04:12.032Z,13.45
2022-09-23T20:06:38.854Z,13.69
2022-09-23T20:09:05.286Z,14.04
2022-09-23T20:11:32.433Z,14.45
2022-09-23T20:14:01.653Z,14.75
2022-09-23T20:16:29.218Z,14.88
2022-09-23T20:18:56.204Z,14.68
2022-09-23T20:21:22.699Z,14.48
2022-09-23T20:23:49.025Z,14.45
2022-09-23T20:26:34.219Z,14.42
2022-09-23T20:29:01.308Z,14.13
2022-09-23T20:31:28.633Z,14.07
2022-09-23T20:33:58.122Z,14.03
2022-09-23T20:36:27.928Z,14.08
2022-09-23T20:38:59.373Z,14.00
2022-09-23T20:41:26.673Z,14.03
2022-09-23T20:43:56.060Z,14.06
2022-09-23T20:46:25.804Z,13.93
2022-09-23T20:48:52.250Z,14.25
2022-09-23T20:51:18.649Z,14.27
2022-09-23T20:53:45.721Z,14.54
2022-09-23T20:56:13.374Z,14.52
2022-09-23T20:58:40.409Z,14.47
2022-09-23T21:01:10.770Z,14.60
2022-09-23T21:03:38.572Z,14.69
2022-09-23T21:06:05.446Z,14.46
2022-09-23T21:08:33.229Z,14.19
2022-09-23T21:11:00.186Z,14.19
2022-09-23T21:13:26.535Z,14.00
2022-09-23T21:15:52.896Z,14.21
2022-09-23T21:18:22.511Z,14.01
2022-09-23T21:20:55.469Z,13.88
2022-09-23T21:23:29.222Z,13.90
2022-09-23T21:26:08.474Z,13.95
2022-09-23T21:28:41.486Z,13.95
2022-09-23T21:31:08.593Z,13.96
2022-09-23T21:33:37.326Z,13.70
2022-09-23T21:36:04.110Z,13.77
2022-09-23T21:38:30.819Z,13.61
2022-09-23T21:40:58.226Z,13.48
2022-09-23T21:43:28.094Z,13.34
2022-09-23T21:45:57.154Z,13.08
2022-09-23T21:48:24.276Z,12.89
2022-09-23T21:50:54.529Z,13.01
2022-09-23T21:53:21.165Z,13.12
2022-09-23T21:55:48.676Z,13.14
2022-09-23T21:58:14.998Z,13.13
2022-09-23T22:00:41.346Z,13.06
2022-09-23T22:03:08.126Z,13.09
2022-09-23T22:05:34.462Z,13.10
2022-09-23T22:08:00.834Z,13.11
2022-09-23T22:10:27.146Z,13.10
2022-09-23T22:12:53.478Z,13.01
2022-09-23T22:15:20.279Z,13.08
2022-09-23T22:17:48.051Z,13.08
2022-09-23T22:20:15.936Z,13.03
2022-09-23T22:22:42.284Z,12.95
2022-09-23T22:25:08.856Z,12.90
2022-09-23T22:27:55.152Z,12.87
2022-09-23T22:30:40.309Z,12.80
2022-09-23T22:33:07.004Z,12.91
2022-09-23T22:35:33.320Z,12.69
2022-09-23T22:38:00.977Z,12.84
2022-09-23T22:40:27.355Z,12.80
2022-09-23T22:42:54.221Z,12.95
2022-09-23T22:45:20.593Z,12.86
2022-09-23T22:47:46.943Z,12.73
2022-09-23T22:50:14.364Z,12.86
2022-09-23T22:52:41.137Z,12.69
2022-09-23T22:55:10.392Z,12.68
2022-09-23T22:57:36.835Z,12.72
2022-09-23T23:00:04.286Z,12.66
2022-09-23T23:02:31.480Z,12.70
2022-09-23T23:05:00.277Z,12.87
2022-09-23T23:07:26.624Z,12.78
2022-09-23T23:09:53.259Z,12.88
2022-09-23T23:12:20.129Z,12.97
2022-09-23T23:14:46.886Z,12.86
2022-09-23T23:17:13.285Z,12.71
2022-09-23T23:19:39.614Z,12.55
2022-09-23T23:22:05.963Z,12.48
2022-09-23T23:24:32.362Z,12.39
2022-09-23T23:26:58.705Z,12.33
2022-09-23T23:29:25.026Z,12.40
2022-09-23T23:31:51.557Z,12.36
2022-09-23T23:34:18.675Z,12.39
2022-09-23T23:36:45.726Z,12.40
2022-09-23T23:39:12.286Z,12.56
2022-09-23T23:41:39.513Z,12.55
2022-09-23T23:44:05.857Z,12.54
2022-09-23T23:46:32.418Z,12.50
2022-09-23T23:48:58.967Z,12.48
2022-09-23T23:51:26.496Z,12.34
2022-09-23T23:53:55.864Z,12.42
2022-09-23T23:56:22.910Z,12.27
2022-09-23T23:58:53.227Z,12.24
